F/V Attalaya Berria — FHCB — position and weather

sailwx.info

Track history (hours):
 
Tides and Currents Weather Stations Pressure Air Temp Water Temp Dewpoint Dewpoint Depression Visibility Wind Speed Wind Dir Waves Ship Positions

F/V Attalaya Berria

Last reported at 2017-Feb-20 03:21 UTC. Time now 2017-Feb-20 04:51 UTC.
Position N 43°25' W 001°45'.

Length 26 m.

Type: Fishing. MMSI: 228315000.

Date/timePositionNaut miles runAvg speedWind from/ knotsBaromVisibWave heightAir tempDewpointWater temp
2017-Feb-20 03:21N 43°25' W 001°45'5 6.2
2017-Feb-20 02:33N 43°27' W 001°38'0 0.2
2017-Feb-20 01:33N 43°27' W 001°38'0 0.2
2017-Feb-20 00:33N 43°27' W 001°38'1 1.2
2017-Feb-19 23:32N 43°27' W 001°40'4 3.9
2017-Feb-19 22:33N 43°30' W 001°36'3 3.0
2017-Feb-19 21:33N 43°27' W 001°37'5 5.2
2017-Feb-19 20:33N 43°24' W 001°43'4 3.9
2017-Feb-19 19:33N 43°27' W 001°39'1 0.7
2017-Feb-19 18:33N 43°27' W 001°40'  
2017-Feb-17 05:23N 43°24' W 001°51'3 0.8
2017-Feb-17 02:05N 43°22' W 001°54'5 8.9
2017-Feb-17 01:31N 43°24' W 001°48'7 7.6
2017-Feb-17 00:33N 43°27' W 001°39'0 0.3
2017-Feb-16 23:33N 43°27' W 001°38'0 0.3
2017-Feb-16 22:33N 43°28' W 001°38'0 0.3
2017-Feb-16 21:33N 43°27' W 001°38'0 0.2
2017-Feb-16 20:33N 43°27' W 001°39'1 0.6
2017-Feb-16 19:33N 43°27' W 001°38'6 5.6
2017-Feb-16 18:33N 43°24' W 001°45'4 0.3
2017-Feb-16 05:31N 43°24' W 001°50'5 2.7
2017-Feb-16 03:32N 43°20' W 001°56'9 9.0
2017-Feb-16 02:33N 43°24' W 001°45'5 4.9
2017-Feb-16 01:33N 43°28' W 001°41'2 1.6
2017-Feb-16 00:33N 43°28' W 001°39'2 2.0
2017-Feb-15 23:34N 43°29' W 001°36'6 5.9
2017-Feb-15 22:33N 43°25' W 001°43'1 0.6
2017-Feb-15 21:33N 43°25' W 001°43'2 2.3
2017-Feb-15 20:33N 43°26' W 001°41'2 2.0
2017-Feb-15 19:33N 43°27' W 001°38'2 2.0
2017-Feb-15 18:33N 43°26' W 001°40'6 0.4
2017-Feb-15 04:33N 43°22' W 001°47'2 2.3
2017-Feb-15 03:33N 43°25' W 001°48'6 5.7
2017-Feb-15 02:31N 43°22' W 001°55'1 0.3
2017-Feb-14 23:30N 43°22' W 001°54'8 8.7
2017-Feb-14 22:33N 43°24' W 001°43'3 3.2
2017-Feb-14 21:29N 43°27' W 001°41'3 3.3
2017-Feb-14 20:33N 43°24' W 001°43'0 0.4
2017-Feb-14 19:33N 43°25' W 001°43'0 0.2
2017-Feb-14 18:33N 43°25' W 001°43'3 0.2
2017-Feb-14 04:33N 43°24' W 001°47'3 0.6
2017-Feb-13 23:34N 43°25' W 001°43'2 2.2
2017-Feb-13 22:33N 43°27' W 001°44'3 3.2
2017-Feb-13 21:33N 43°28' W 001°39'5 5.1
2017-Feb-13 20:33N 43°24' W 001°45'1 1.1
2017-Feb-13 19:33N 43°25' W 001°43'0 0.3
2017-Feb-13 18:30N 43°24' W 001°43'4 0.3
2017-Feb-13 04:33N 43°22' W 001°47'2 0.4
2017-Feb-12 23:27N 43°24' W 001°46'2 2.4
2017-Feb-12 22:33N 43°25' W 001°43'3 3.1
2017-Feb-12 21:33N 43°28' W 001°42'3 3.1
2017-Feb-12 20:33N 43°25' W 001°43'0 0.4
2017-Feb-12 19:33N 43°25' W 001°44'0 0.5
2017-Feb-12 18:33N 43°24' W 001°43'  
Track history (hours):
 
Tides and Currents Weather Stations Pressure Air Temp Water Temp Dewpoint Dewpoint Depression Visibility Wind Speed Wind Dir Waves Ship Positions

F/V Attalaya Berria

Last reported at 2017-Feb-20 03:21 UTC. Time now 2017-Feb-20 04:51 UTC.
Position N 43°25' W 001°45'.

Length 26 m.

Type: Fishing. MMSI: 228315000.

Date/timePositionNaut miles runAvg speedWind from/ knotsBaromVisibWave heightAir tempDewpointWater temp
2017-Feb-20 03:21N 43°25' W 001°45'5 6.2
2017-Feb-20 02:33N 43°27' W 001°38'0 0.2
2017-Feb-20 01:33N 43°27' W 001°38'0 0.2
2017-Feb-20 00:33N 43°27' W 001°38'1 1.2
2017-Feb-19 23:32N 43°27' W 001°40'4 3.9
2017-Feb-19 22:33N 43°30' W 001°36'3 3.0
2017-Feb-19 21:33N 43°27' W 001°37'5 5.2
2017-Feb-19 20:33N 43°24' W 001°43'4 3.9
2017-Feb-19 19:33N 43°27' W 001°39'1 0.7
2017-Feb-19 18:33N 43°27' W 001°40'  
2017-Feb-17 05:23N 43°24' W 001°51'3 0.8
2017-Feb-17 02:05N 43°22' W 001°54'5 8.9
2017-Feb-17 01:31N 43°24' W 001°48'7 7.6
2017-Feb-17 00:33N 43°27' W 001°39'0 0.3
2017-Feb-16 23:33N 43°27' W 001°38'0 0.3
2017-Feb-16 22:33N 43°28' W 001°38'0 0.3
2017-Feb-16 21:33N 43°27' W 001°38'0 0.2
2017-Feb-16 20:33N 43°27' W 001°39'1 0.6
2017-Feb-16 19:33N 43°27' W 001°38'6 5.6
2017-Feb-16 18:33N 43°24' W 001°45'4 0.3
2017-Feb-16 05:31N 43°24' W 001°50'5 2.7
2017-Feb-16 03:32N 43°20' W 001°56'9 9.0
2017-Feb-16 02:33N 43°24' W 001°45'5 4.9
2017-Feb-16 01:33N 43°28' W 001°41'2 1.6
2017-Feb-16 00:33N 43°28' W 001°39'2 2.0
2017-Feb-15 23:34N 43°29' W 001°36'6 5.9
2017-Feb-15 22:33N 43°25' W 001°43'1 0.6
2017-Feb-15 21:33N 43°25' W 001°43'2 2.3
2017-Feb-15 20:33N 43°26' W 001°41'2 2.0
2017-Feb-15 19:33N 43°27' W 001°38'2 2.0
2017-Feb-15 18:33N 43°26' W 001°40'6 0.4
2017-Feb-15 04:33N 43°22' W 001°47'2 2.3
2017-Feb-15 03:33N 43°25' W 001°48'6 5.7
2017-Feb-15 02:31N 43°22' W 001°55'1 0.3
2017-Feb-14 23:30N 43°22' W 001°54'8 8.7
2017-Feb-14 22:33N 43°24' W 001°43'3 3.2
2017-Feb-14 21:29N 43°27' W 001°41'3 3.3
2017-Feb-14 20:33N 43°24' W 001°43'0 0.4
2017-Feb-14 19:33N 43°25' W 001°43'0 0.2
2017-Feb-14 18:33N 43°25' W 001°43'3 0.2
2017-Feb-14 04:33N 43°24' W 001°47'3 0.6
2017-Feb-13 23:34N 43°25' W 001°43'2 2.2
2017-Feb-13 22:33N 43°27' W 001°44'3 3.2
2017-Feb-13 21:33N 43°28' W 001°39'5 5.1
2017-Feb-13 20:33N 43°24' W 001°45'1 1.1
2017-Feb-13 19:33N 43°25' W 001°43'0 0.3
2017-Feb-13 18:30N 43°24' W 001°43'4 0.3
2017-Feb-13 04:33N 43°22' W 001°47'2 0.4
2017-Feb-12 23:27N 43°24' W 001°46'2 2.4
2017-Feb-12 22:33N 43°25' W 001°43'3 3.1
2017-Feb-12 21:33N 43°28' W 001°42'3 3.1
2017-Feb-12 20:33N 43°25' W 001°43'0 0.4
2017-Feb-12 19:33N 43°25' W 001°44'0 0.5
2017-Feb-12 18:33N 43°24' W 001°43'  

Dump ship's entire track history